createdAt,value
2019-05-28T00:00:53.073Z,95.20
2019-05-28T00:03:20.952Z,95.40
2019-05-28T00:05:48.622Z,95.60
2019-05-28T00:08:16.477Z,95.60
2019-05-28T00:10:44.163Z,95.90
2019-05-28T00:13:12.017Z,95.80
2019-05-28T00:15:39.691Z,95.90
2019-05-28T00:18:08.162Z,95.80
2019-05-28T00:20:35.857Z,95.80
2019-05-28T00:23:03.598Z,96.10
2019-05-28T00:25:31.286Z,96.10
2019-05-28T00:27:58.967Z,96.40
2019-05-28T00:30:26.730Z,96.40
2019-05-28T00:32:54.530Z,96.60
2019-05-28T00:35:22.454Z,96.90
2019-05-28T00:37:50.492Z,97.00
2019-05-28T00:40:18.272Z,97.20
2019-05-28T00:42:46.061Z,97.20
2019-05-28T00:45:14.722Z,97.20
2019-05-28T00:47:43.722Z,97.40
2019-05-28T00:50:12.180Z,97.30
2019-05-28T00:52:40.756Z,97.60
2019-05-28T00:55:09.215Z,97.70
2019-05-28T00:57:41.978Z,97.80
2019-05-28T01:00:11.514Z,97.70
2019-05-28T01:02:40.653Z,97.90
2019-05-28T01:05:08.598Z,97.80
2019-05-28T01:07:36.404Z,97.60
2019-05-28T01:10:05.064Z,97.70
2019-05-28T01:12:34.394Z,97.90
2019-05-28T01:15:02.157Z,97.80
2019-05-28T01:17:31.539Z,97.80
2019-05-28T01:19:59.414Z,97.80
2019-05-28T01:22:27.070Z,97.90
2019-05-28T01:24:54.906Z,97.80
2019-05-28T01:27:22.629Z,97.60
2019-05-28T01:29:50.391Z,97.60
2019-05-28T01:32:18.058Z,97.50
2019-05-28T01:34:45.834Z,97.40
2019-05-28T01:37:13.594Z,97.40
2019-05-28T01:39:41.364Z,97.60
2019-05-28T01:42:09.129Z,97.40
2019-05-28T01:44:36.814Z,97.40
2019-05-28T01:47:04.663Z,97.80
2019-05-28T01:49:32.327Z,98.10
2019-05-28T01:52:00.224Z,98.30
2019-05-28T01:54:28.115Z,98.40
2019-05-28T01:56:55.870Z,98.40
2019-05-28T01:59:23.557Z,98.50
2019-05-28T02:01:51.310Z,98.90
2019-05-28T02:04:27.744Z,98.80
2019-05-28T02:06:55.492Z,99.10
2019-05-28T02:09:23.165Z,99.20
2019-05-28T02:11:50.927Z,99.10
2019-05-28T02:14:18.606Z,99.80
2019-05-28T02:16:55.174Z,99.70
2019-05-28T02:19:22.829Z,99.90
2019-05-28T02:21:50.522Z,99.90
2019-05-28T02:24:18.233Z,99.90
2019-05-28T02:26:46.001Z,99.90
2019-05-28T02:29:13.670Z,99.90
2019-05-28T02:31:41.368Z,99.90
2019-05-28T02:34:09.146Z,99.90
2019-05-28T02:36:36.809Z,99.90
2019-05-28T02:39:06.910Z,99.90
2019-05-28T02:41:34.710Z,99.90
2019-05-28T02:44:02.480Z,99.90
2019-05-28T02:46:30.458Z,99.90
2019-05-28T02:48:58.227Z,99.90
2019-05-28T02:51:26.230Z,99.90
2019-05-28T02:53:53.998Z,99.90
2019-05-28T02:56:25.193Z,99.90
2019-05-28T02:58:56.742Z,99.90
2019-05-28T03:01:26.181Z,99.90
2019-05-28T03:06:24.317Z,99.90
2019-05-28T03:11:23.050Z,99.90
2019-05-28T03:13:51.805Z,99.90
2019-05-28T03:16:23.894Z,99.90
2019-05-28T03:18:54.446Z,99.90
2019-05-28T03:21:28.257Z,99.90
2019-05-28T03:24:01.048Z,99.90
2019-05-28T03:26:30.183Z,99.90
2019-05-28T03:28:58.067Z,99.90
2019-05-28T03:31:26.092Z,99.90
2019-05-28T03:33:53.977Z,99.90
2019-05-28T03:36:25.591Z,99.90
2019-05-28T03:38:56.296Z,99.90
2019-05-28T03:41:25.052Z,99.90
2019-05-28T03:43:52.848Z,99.90
2019-05-28T03:46:26.495Z,99.90
2019-05-28T03:48:54.364Z,99.90
2019-05-28T03:51:22.212Z,99.90
2019-05-28T03:53:50.138Z,99.90
2019-05-28T03:56:17.919Z,99.90
2019-05-28T03:58:45.683Z,99.90
2019-05-28T04:01:13.473Z,99.90
2019-05-28T04:03:41.326Z,99.90
2019-05-28T04:06:09.162Z,99.90
2019-05-28T04:08:36.893Z,99.90
2019-05-28T04:11:04.829Z,99.90
2019-05-28T04:13:32.589Z,99.90
2019-05-28T04:16:00.271Z,99.90
2019-05-28T04:18:28.101Z,99.90
2019-05-28T04:20:55.921Z,99.90
2019-05-28T04:23:24.165Z,99.90
2019-05-28T04:25:52.042Z,99.90
2019-05-28T04:28:19.786Z,99.90
2019-05-28T04:30:47.587Z,99.90
2019-05-28T04:33:15.310Z,99.90
2019-05-28T04:35:43.242Z,99.90
2019-05-28T04:38:10.962Z,99.90
2019-05-28T04:40:39.761Z,99.90
2019-05-28T04:43:07.679Z,99.90
2019-05-28T04:45:35.508Z,99.90
2019-05-28T04:48:03.804Z,99.90
2019-05-28T04:50:31.631Z,99.90
2019-05-28T04:52:59.451Z,99.90
2019-05-28T04:55:27.232Z,99.90
2019-05-28T05:00:49.953Z,99.90
2019-05-28T05:03:17.835Z,99.90
2019-05-28T05:05:46.886Z,99.90
2019-05-28T05:08:14.703Z,99.90
2019-05-28T05:10:42.511Z,99.90
2019-05-28T05:13:10.303Z,99.90
2019-05-28T05:15:38.064Z,99.90
2019-05-28T05:18:05.947Z,99.90
2019-05-28T05:20:33.664Z,99.90
2019-05-28T05:23:01.444Z,99.90
2019-05-28T05:25:29.190Z,99.90
2019-05-28T05:27:57.012Z,99.90
2019-05-28T05:32:52.794Z,99.90
2019-05-28T05:35:20.520Z,99.90
2019-05-28T05:37:48.346Z,99.90
2019-05-28T05:40:16.194Z,99.90
2019-05-28T05:42:44.303Z,99.90
2019-05-28T05:45:12.378Z,99.90
2019-05-28T05:47:40.647Z,99.90
2019-05-28T05:50:08.487Z,99.90
2019-05-28T05:52:36.946Z,99.90
2019-05-28T05:55:05.124Z,99.90
2019-05-28T05:57:33.135Z,99.90
2019-05-28T06:00:00.880Z,99.90
2019-05-28T06:02:30.294Z,99.90
2019-05-28T06:04:58.125Z,99.90
2019-05-28T06:07:26.223Z,99.90
2019-05-28T06:09:54.060Z,99.90
2019-05-28T06:12:24.811Z,99.90
2019-05-28T06:14:52.988Z,99.90
2019-05-28T06:17:20.798Z,99.90
2019-05-28T06:19:48.718Z,99.90
2019-05-28T06:22:16.439Z,99.90
2019-05-28T06:24:44.235Z,99.90
2019-05-28T06:27:11.947Z,99.90
2019-05-28T06:29:39.817Z,99.90
2019-05-28T06:32:07.616Z,99.90
2019-05-28T06:34:35.492Z,99.90
2019-05-28T06:37:03.333Z,99.90
2019-05-28T06:39:31.288Z,99.90
2019-05-28T06:41:59.100Z,99.90
2019-05-28T06:44:26.946Z,99.90
2019-05-28T06:46:54.857Z,99.90
2019-05-28T06:49:22.700Z,99.90
2019-05-28T06:51:50.466Z,99.90
2019-05-28T06:54:18.171Z,99.90
2019-05-28T06:56:45.893Z,99.90
2019-05-28T06:59:13.575Z,99.90
2019-05-28T07:01:41.253Z,99.90
2019-05-28T07:04:14.034Z,99.90
2019-05-28T07:06:39.923Z,99.90
2019-05-28T07:11:38.133Z,99.90
2019-05-28T07:14:05.834Z,99.90
2019-05-28T07:16:33.669Z,99.90
2019-05-28T07:19:01.475Z,99.90
2019-05-28T07:21:30.076Z,99.90
2019-05-28T07:23:57.934Z,99.90
2019-05-28T07:26:25.822Z,99.90
2019-05-28T07:28:53.653Z,99.90
2019-05-28T07:31:21.494Z,99.90
2019-05-28T07:33:49.180Z,99.90
2019-05-28T07:36:16.966Z,99.90
2019-05-28T07:38:45.877Z,99.90
2019-05-28T07:41:13.765Z,99.90
2019-05-28T07:43:41.598Z,99.90
2019-05-28T07:46:09.556Z,99.90
2019-05-28T07:48:37.296Z,99.90
2019-05-28T07:51:05.159Z,99.90
2019-05-28T07:53:40.098Z,99.90
2019-05-28T07:56:02.603Z,99.90
2019-05-28T07:58:30.510Z,99.90
2019-05-28T08:00:58.384Z,99.90
2019-05-28T08:03:26.079Z,99.90
2019-05-28T08:05:53.869Z,99.90
2019-05-28T08:08:23.422Z,99.90
2019-05-28T08:10:51.403Z,99.90
2019-05-28T08:13:19.224Z,99.90
2019-05-28T08:15:47.027Z,99.90
2019-05-28T08:18:15.063Z,99.90
2019-05-28T08:20:42.895Z,99.90
2019-05-28T08:23:10.713Z,99.90
2019-05-28T08:25:47.037Z,99.90
2019-05-28T08:28:19.797Z,99.90
2019-05-28T08:30:40.445Z,99.90
2019-05-28T08:33:08.430Z,99.90
2019-05-28T08:35:36.205Z,99.90
2019-05-28T08:38:03.987Z,99.90
2019-05-28T08:40:31.757Z,99.90
2019-05-28T08:42:59.556Z,99.90
2019-05-28T08:45:27.470Z,99.90
2019-05-28T08:47:55.381Z,99.90
2019-05-28T08:50:34.004Z,99.90
2019-05-28T08:52:53.028Z,99.90
2019-05-28T08:55:20.729Z,99.90
2019-05-28T08:57:48.635Z,99.90
2019-05-28T09:00:36.445Z,99.40
2019-05-28T09:03:05.924Z,99.90
2019-05-28T09:05:33.873Z,99.90
2019-05-28T09:08:01.797Z,99.90
2019-05-28T09:10:30.693Z,99.90
2019-05-28T09:12:58.662Z,99.90
2019-05-28T09:15:26.375Z,99.40
2019-05-28T09:17:54.259Z,99.20
2019-05-28T09:20:22.088Z,99.90
2019-05-28T09:22:49.890Z,98.80
2019-05-28T09:25:17.730Z,99.20
2019-05-28T09:27:45.549Z,99.20
2019-05-28T09:30:13.525Z,99.90
2019-05-28T09:32:42.888Z,98.40
2019-05-28T09:35:12.580Z,98.10
2019-05-28T09:37:40.398Z,97.10
2019-05-28T09:40:09.516Z,98.00
2019-05-28T09:42:37.967Z,97.20
2019-05-28T09:45:21.287Z,97.20
2019-05-28T09:47:37.237Z,96.70
2019-05-28T09:50:05.336Z,97.60
2019-05-28T09:52:34.810Z,96.60
2019-05-28T09:55:03.292Z,97.00
2019-05-28T09:57:46.282Z,95.30
2019-05-28T10:00:03.856Z,96.70
2019-05-28T10:02:33.407Z,95.20
2019-05-28T10:05:01.174Z,96.30
2019-05-28T10:07:29.801Z,96.10
2019-05-28T10:09:58.910Z,95.40
2019-05-28T10:12:26.707Z,95.40
2019-05-28T10:14:54.564Z,96.10
2019-05-28T10:17:22.263Z,92.90
2019-05-28T10:19:50.169Z,93.40
2019-05-28T10:22:17.959Z,92.70
2019-05-28T10:24:45.789Z,93.50
2019-05-28T10:27:13.505Z,92.90
2019-05-28T10:29:41.250Z,92.90
2019-05-28T10:32:09.044Z,91.10
2019-05-28T10:34:36.755Z,90.50
2019-05-28T10:37:04.456Z,91.10
2019-05-28T10:39:32.324Z,92.40
2019-05-28T10:42:00.215Z,91.70
2019-05-28T10:44:28.122Z,90.40
2019-05-28T10:46:55.883Z,91.80
2019-05-28T10:49:23.746Z,91.00
2019-05-28T10:51:51.578Z,90.10
2019-05-28T10:54:19.332Z,90.70
2019-05-28T10:56:47.137Z,90.90
2019-05-28T10:59:14.810Z,91.30
2019-05-28T11:01:45.542Z,90.20
2019-05-28T11:04:13.271Z,90.60
2019-05-28T11:06:51.372Z,91.50
2019-05-28T11:09:10.625Z,91.20
2019-05-28T11:11:38.516Z,91.10
2019-05-28T11:14:06.197Z,91.60
2019-05-28T11:16:55.590Z,92.70
2019-05-28T11:19:23.678Z,93.90
2019-05-28T11:21:51.557Z,91.40
2019-05-28T11:24:19.281Z,91.20
2019-05-28T11:26:47.077Z,90.90
2019-05-28T11:29:14.787Z,89.20
2019-05-28T11:31:42.659Z,88.30
2019-05-28T11:34:10.516Z,84.80
2019-05-28T11:36:38.334Z,89.60
2019-05-28T11:39:08.906Z,85.50
2019-05-28T11:41:42.203Z,85.30
2019-05-28T11:44:07.526Z,83.70
2019-05-28T11:46:35.381Z,84.00
2019-05-28T11:49:03.429Z,82.60
2019-05-28T11:51:31.251Z,82.10
2019-05-28T11:53:59.056Z,81.00
2019-05-28T11:56:26.775Z,78.20
2019-05-28T11:58:54.723Z,83.00
2019-05-28T12:01:33.963Z,80.10
2019-05-28T12:03:52.366Z,79.80
2019-05-28T12:06:20.249Z,78.40
2019-05-28T12:08:48.303Z,80.10
2019-05-28T12:11:16.218Z,81.20
2019-05-28T12:13:44.155Z,78.30
2019-05-28T12:16:12.025Z,77.40
2019-05-28T12:18:39.855Z,78.60
2019-05-28T12:21:07.611Z,75.50
2019-05-28T12:23:35.428Z,73.50
2019-05-28T12:26:03.196Z,77.50
2019-05-28T12:28:37.769Z,75.20
2019-05-28T12:31:00.907Z,75.40
2019-05-28T12:33:28.700Z,72.60
2019-05-28T12:35:56.664Z,73.90
2019-05-28T12:38:24.505Z,73.40
2019-05-28T12:40:52.465Z,74.70
2019-05-28T12:43:20.222Z,71.70
2019-05-28T12:45:48.274Z,70.40
2019-05-28T12:48:16.177Z,76.10
2019-05-28T12:50:44.054Z,76.70
2019-05-28T12:53:11.907Z,73.40
2019-05-28T12:55:39.782Z,71.00
2019-05-28T12:58:07.647Z,74.00
2019-05-28T13:00:35.989Z,77.20
2019-05-28T13:03:04.538Z,73.00
2019-05-28T13:05:32.737Z,72.00
2019-05-28T13:08:09.103Z,73.70
2019-05-28T13:10:32.076Z,73.60
2019-05-28T13:13:00.028Z,72.60
2019-05-28T13:15:28.341Z,75.00
2019-05-28T13:17:56.284Z,70.20
2019-05-28T13:20:24.228Z,69.80
2019-05-28T13:22:52.118Z,72.60
2019-05-28T13:25:20.544Z,71.10
2019-05-28T13:27:48.459Z,73.80
2019-05-28T13:30:16.921Z,72.30
2019-05-28T13:32:45.951Z,69.30
2019-05-28T13:35:15.096Z,68.00
2019-05-28T13:37:43.777Z,69.50
2019-05-28T13:40:12.812Z,72.60
2019-05-28T13:42:41.485Z,73.80
2019-05-28T13:45:10.171Z,72.40
2019-05-28T13:47:38.617Z,73.10
2019-05-28T13:50:06.982Z,72.20
2019-05-28T13:52:35.545Z,72.30
2019-05-28T13:55:03.968Z,76.50
2019-05-28T13:57:33.581Z,70.20
2019-05-28T14:00:01.511Z,69.00
2019-05-28T14:02:31.400Z,70.00
2019-05-28T14:04:59.195Z,68.60
2019-05-28T14:07:27.090Z,67.70
2019-05-28T14:09:54.949Z,68.70
2019-05-28T14:12:22.840Z,65.90
2019-05-28T14:14:50.707Z,69.20
2019-05-28T14:17:18.765Z,67.20
2019-05-28T14:19:46.531Z,64.60
2019-05-28T14:22:14.337Z,68.40
2019-05-28T14:24:42.109Z,65.20
2019-05-28T14:27:10.101Z,61.00
2019-05-28T14:29:37.953Z,63.80
2019-05-28T14:32:05.814Z,61.90
2019-05-28T14:34:33.586Z,63.50
2019-05-28T14:37:01.648Z,61.90
2019-05-28T14:39:40.674Z,62.20
2019-05-28T14:41:59.282Z,58.60
2019-05-28T14:44:27.131Z,59.10
2019-05-28T14:46:55.019Z,58.30
2019-05-28T14:49:23.081Z,58.00
2019-05-28T14:51:51.305Z,58.40
2019-05-28T14:54:19.283Z,58.80
2019-05-28T14:56:47.132Z,56.10
2019-05-28T14:59:15.014Z,57.20
2019-05-28T15:01:42.798Z,58.30
2019-05-28T15:04:10.717Z,58.50
2019-05-28T15:06:38.455Z,59.00
2019-05-28T15:09:20.300Z,60.10
2019-05-28T15:11:38.314Z,62.30
2019-05-28T15:14:06.201Z,59.20
2019-05-28T15:16:33.990Z,60.40
2019-05-28T15:19:01.882Z,61.10
2019-05-28T15:21:29.992Z,60.40
2019-05-28T15:23:57.828Z,59.40
2019-05-28T15:26:25.459Z,62.50
2019-05-28T15:28:53.210Z,60.50
2019-05-28T15:31:20.986Z,59.60
2019-05-28T15:33:48.868Z,60.60
2019-05-28T15:36:16.707Z,64.00
2019-05-28T15:38:44.507Z,61.50
2019-05-28T15:41:12.348Z,61.50
2019-05-28T15:43:40.158Z,62.90
2019-05-28T15:46:07.936Z,63.80
2019-05-28T15:48:35.718Z,66.50
2019-05-28T15:51:03.399Z,67.20
2019-05-28T15:53:31.275Z,69.60
2019-05-28T15:55:59.027Z,67.10
2019-05-28T15:58:26.773Z,67.60
2019-05-28T16:00:54.637Z,68.10
2019-05-28T16:03:22.456Z,68.20
2019-05-28T16:05:50.334Z,69.60
2019-05-28T16:08:18.044Z,69.10
2019-05-28T16:10:46.013Z,70.60
2019-05-28T16:13:13.695Z,70.50
2019-05-28T16:15:41.478Z,72.30
2019-05-28T16:18:09.214Z,71.50
2019-05-28T16:20:37.040Z,73.50
2019-05-28T16:23:04.809Z,73.00
2019-05-28T16:25:32.677Z,73.00
2019-05-28T16:28:00.399Z,71.60
2019-05-28T16:30:28.253Z,71.70
2019-05-28T16:32:56.039Z,71.30
2019-05-28T16:35:23.847Z,71.00
2019-05-28T16:37:51.568Z,73.70
2019-05-28T16:40:19.679Z,70.00
2019-05-28T16:42:47.392Z,70.90
2019-05-28T16:45:15.489Z,71.10
2019-05-28T16:47:43.909Z,70.60
2019-05-28T16:50:13.878Z,73.00
2019-05-28T16:52:43.212Z,71.10
2019-05-28T16:55:11.247Z,70.60
2019-05-28T16:57:39.277Z,72.60
2019-05-28T17:00:07.597Z,69.30
2019-05-28T17:02:35.760Z,70.20
2019-05-28T17:05:04.239Z,70.00
2019-05-28T17:07:33.648Z,68.30
2019-05-28T17:10:01.446Z,68.90
2019-05-28T17:12:30.726Z,66.70
2019-05-28T17:14:58.582Z,65.80
2019-05-28T17:17:26.392Z,66.80
2019-05-28T17:19:54.285Z,66.10
2019-05-28T17:22:22.129Z,67.60
2019-05-28T17:24:49.867Z,68.50
2019-05-28T17:27:17.688Z,67.90
2019-05-28T17:29:45.358Z,67.10
2019-05-28T17:32:13.217Z,66.90
2019-05-28T17:34:42.055Z,66.50
2019-05-28T17:37:10.025Z,67.10
2019-05-28T17:39:37.864Z,66.90
2019-05-28T17:42:05.758Z,66.60
2019-05-28T17:44:33.505Z,66.30
2019-05-28T17:47:01.395Z,65.60
2019-05-28T17:49:29.355Z,67.10
2019-05-28T17:51:57.165Z,66.70
2019-05-28T17:54:25.031Z,66.80
2019-05-28T17:56:53.026Z,67.00
2019-05-28T17:59:20.682Z,66.60
2019-05-28T18:01:48.456Z,67.40
2019-05-28T18:04:16.305Z,67.40
2019-05-28T18:06:44.180Z,67.60
2019-05-28T18:09:18.071Z,68.10
2019-05-28T18:11:45.882Z,69.20
2019-05-28T18:14:13.807Z,67.80
2019-05-28T18:16:41.635Z,67.80
2019-05-28T18:19:09.630Z,68.90
2019-05-28T18:21:37.573Z,67.70
2019-05-28T18:24:05.461Z,68.00
2019-05-28T18:26:33.373Z,66.60
2019-05-28T18:29:01.304Z,64.70
2019-05-28T18:31:29.262Z,65.90
2019-05-28T18:33:57.299Z,67.60
2019-05-28T18:36:25.518Z,68.00
2019-05-28T18:38:53.782Z,66.30
2019-05-28T18:41:22.271Z,66.30
2019-05-28T18:43:50.568Z,67.10
2019-05-28T18:46:18.626Z,67.80
2019-05-28T18:48:46.679Z,68.00
2019-05-28T18:51:14.792Z,67.60
2019-05-28T18:53:42.775Z,67.60
2019-05-28T18:56:17.494Z,67.70
2019-05-28T18:58:40.394Z,68.40
2019-05-28T19:01:08.294Z,68.20
2019-05-28T19:03:36.343Z,68.80
2019-05-28T19:06:04.750Z,69.40
2019-05-28T19:08:32.807Z,69.70
2019-05-28T19:11:00.824Z,69.40
2019-05-28T19:13:28.568Z,69.60
2019-05-28T19:15:56.474Z,69.80
2019-05-28T19:18:24.250Z,69.90
2019-05-28T19:20:52.088Z,69.20
2019-05-28T19:23:19.918Z,69.50
2019-05-28T19:25:47.728Z,69.40
2019-05-28T19:28:15.540Z,68.70
2019-05-28T19:30:43.592Z,68.80
2019-05-28T19:33:11.333Z,70.60
2019-05-28T19:35:39.285Z,70.50
2019-05-28T19:38:07.132Z,69.60
2019-05-28T19:40:36.265Z,70.60
2019-05-28T19:43:05.850Z,70.80
2019-05-28T19:45:34.619Z,70.30
2019-05-28T19:48:03.700Z,70.50
2019-05-28T19:50:32.580Z,71.20
2019-05-28T19:53:01.192Z,71.70
2019-05-28T19:55:29.727Z,71.40
2019-05-28T19:57:57.497Z,71.50
2019-05-28T20:00:25.804Z,72.10
2019-05-28T20:02:53.672Z,72.10
2019-05-28T20:05:21.571Z,72.50
2019-05-28T20:07:49.402Z,73.00
2019-05-28T20:10:17.976Z,73.00
2019-05-28T20:12:46.033Z,73.30
2019-05-28T20:15:15.340Z,73.80
2019-05-28T20:17:43.439Z,73.60
2019-05-28T20:20:11.703Z,73.60
2019-05-28T20:22:39.933Z,74.00
2019-05-28T20:25:08.209Z,74.70
2019-05-28T20:27:37.230Z,74.30
2019-05-28T20:30:07.185Z,73.80
2019-05-28T20:32:36.459Z,73.80
2019-05-28T20:35:05.478Z,73.60
2019-05-28T20:37:33.798Z,73.90
2019-05-28T20:40:03.922Z,73.80
2019-05-28T20:42:35.753Z,74.20
2019-05-28T20:45:04.248Z,74.80
2019-05-28T20:47:33.635Z,74.80
2019-05-28T20:50:01.400Z,75.00
2019-05-28T20:52:30.879Z,75.20
2019-05-28T20:54:59.171Z,75.20
2019-05-28T20:57:27.102Z,75.10
2019-05-28T20:59:55.776Z,75.10
2019-05-28T21:02:23.666Z,75.50
2019-05-28T21:04:52.405Z,75.40
2019-05-28T21:07:20.291Z,75.50
2019-05-28T21:09:48.174Z,75.80
2019-05-28T21:12:15.922Z,76.70
2019-05-28T21:14:43.623Z,77.10
2019-05-28T21:17:11.521Z,77.80
2019-05-28T21:19:39.338Z,78.30
2019-05-28T21:22:07.135Z,78.50
2019-05-28T21:24:34.966Z,79.00
2019-05-28T21:27:02.667Z,79.10
2019-05-28T21:29:30.502Z,79.40
2019-05-28T21:31:58.771Z,79.40
2019-05-28T21:34:26.678Z,79.00
2019-05-28T21:36:54.934Z,79.20
2019-05-28T21:39:22.878Z,79.60
2019-05-28T21:41:51.664Z,79.90
2019-05-28T21:44:19.601Z,79.90
2019-05-28T21:46:47.318Z,80.20
2019-05-28T21:49:15.167Z,80.40
2019-05-28T21:51:42.967Z,80.30
2019-05-28T21:54:10.792Z,80.50
2019-05-28T21:56:38.538Z,80.80
2019-05-28T21:59:06.328Z,81.00
2019-05-28T22:01:36.540Z,81.00
2019-05-28T22:04:04.532Z,80.80
2019-05-28T22:06:33.261Z,80.60
2019-05-28T22:09:02.101Z,80.40
2019-05-28T22:11:31.512Z,80.50
2019-05-28T22:14:00.104Z,80.90
2019-05-28T22:16:28.087Z,81.40
2019-05-28T22:18:56.418Z,81.70
2019-05-28T22:21:24.170Z,81.40
2019-05-28T22:23:51.895Z,81.90
2019-05-28T22:26:19.773Z,82.10
2019-05-28T22:28:47.432Z,82.10
2019-05-28T22:31:15.206Z,81.90
2019-05-28T22:33:42.882Z,82.30
2019-05-28T22:36:10.715Z,82.30
2019-05-28T22:38:38.542Z,82.60
2019-05-28T22:41:06.442Z,82.50
2019-05-28T22:43:34.136Z,82.70
2019-05-28T22:46:03.191Z,82.40
2019-05-28T22:48:31.074Z,82.40
2019-05-28T22:50:59.392Z,82.60
2019-05-28T22:53:27.118Z,83.00
2019-05-28T22:55:54.808Z,82.80
2019-05-28T22:58:22.717Z,83.10
2019-05-28T23:00:50.550Z,83.30
2019-05-28T23:03:18.234Z,83.80
2019-05-28T23:05:45.984Z,84.10
2019-05-28T23:08:13.653Z,84.30
2019-05-28T23:10:41.442Z,84.20
2019-05-28T23:13:09.233Z,84.60
2019-05-28T23:15:37.061Z,84.90
2019-05-28T23:18:04.866Z,85.90
2019-05-28T23:20:32.564Z,86.70
2019-05-28T23:23:00.989Z,86.90
2019-05-28T23:25:28.810Z,87.00
2019-05-28T23:27:56.674Z,86.60
2019-05-28T23:30:25.547Z,87.80
2019-05-28T23:32:53.763Z,88.10
2019-05-28T23:35:21.784Z,88.10
2019-05-28T23:37:49.498Z,88.40
2019-05-28T23:40:17.342Z,88.50
2019-05-28T23:42:45.285Z,88.90
2019-05-28T23:45:13.945Z,88.80
2019-05-28T23:47:42.164Z,89.00
2019-05-28T23:50:14.817Z,88.70
2019-05-28T23:52:41.429Z,88.90
2019-05-28T23:55:09.898Z,89.40
2019-05-28T23:57:38.110Z,90.10
